sensor_id;sensor_type;location;lat;lon;timestamp;P1;durP1;ratioP1;P2;durP2;ratioP2
21114;SDS011;10715;48.546;9.896;2023-03-31T00:00:43;2.70;;;2.20;;
21114;SDS011;10715;48.546;9.896;2023-03-31T00:03:09;2.63;;;2.43;;
21114;SDS011;10715;48.546;9.896;2023-03-31T00:05:46;3.10;;;1.53;;
21114;SDS011;10715;48.546;9.896;2023-03-31T00:08:12;2.23;;;1.43;;
21114;SDS011;10715;48.546;9.896;2023-03-31T00:10:42;3.50;;;1.37;;
21114;SDS011;10715;48.546;9.896;2023-03-31T00:13:10;1.63;;;1.00;;
21114;SDS011;10715;48.546;9.896;2023-03-31T00:15:36;2.60;;;1.57;;
21114;SDS011;10715;48.546;9.896;2023-03-31T00:18:02;2.30;;;0.97;;
21114;SDS011;10715;48.546;9.896;2023-03-31T00:20:28;5.67;;;1.53;;
21114;SDS011;10715;48.546;9.896;2023-03-31T00:22:57;3.10;;;1.77;;
21114;SDS011;10715;48.546;9.896;2023-03-31T00:25:25;1.70;;;1.20;;
21114;SDS011;10715;48.546;9.896;2023-03-31T00:27:51;4.93;;;2.20;;
21114;SDS011;10715;48.546;9.896;2023-03-31T00:30:17;1.10;;;0.70;;
21114;SDS011;10715;48.546;9.896;2023-03-31T00:32:43;2.70;;;0.90;;
21114;SDS011;10715;48.546;9.896;2023-03-31T00:35:08;3.97;;;0.87;;
21114;SDS011;10715;48.546;9.896;2023-03-31T00:37:34;1.40;;;0.80;;
21114;SDS011;10715;48.546;9.896;2023-03-31T00:40:00;1.00;;;0.73;;
21114;SDS011;10715;48.546;9.896;2023-03-31T00:42:26;1.03;;;0.90;;
21114;SDS011;10715;48.546;9.896;2023-03-31T00:47:44;1.30;;;0.80;;
21114;SDS011;10715;48.546;9.896;2023-03-31T00:50:16;1.40;;;1.10;;
21114;SDS011;10715;48.546;9.896;2023-03-31T00:52:53;2.63;;;0.50;;
21114;SDS011;10715;48.546;9.896;2023-03-31T00:55:23;3.97;;;0.53;;
21114;SDS011;10715;48.546;9.896;2023-03-31T00:57:54;5.30;;;0.80;;
21114;SDS011;10715;48.546;9.896;2023-03-31T01:00:22;4.60;;;1.20;;
21114;SDS011;10715;48.546;9.896;2023-03-31T01:02:58;1.90;;;0.60;;
21114;SDS011;10715;48.546;9.896;2023-03-31T01:08:02;2.20;;;1.80;;
21114;SDS011;10715;48.546;9.896;2023-03-31T01:10:29;5.80;;;1.47;;
21114;SDS011;10715;48.546;9.896;2023-03-31T01:13:02;3.13;;;0.77;;
21114;SDS011;10715;48.546;9.896;2023-03-31T01:15:29;3.70;;;0.97;;
21114;SDS011;10715;48.546;9.896;2023-03-31T01:17:55;5.13;;;1.40;;
21114;SDS011;10715;48.546;9.896;2023-03-31T01:45:19;4.03;;;1.20;;
21114;SDS011;10715;48.546;9.896;2023-03-31T01:47:51;5.83;;;1.60;;
21114;SDS011;10715;48.546;9.896;2023-03-31T01:50:43;1.57;;;1.40;;
21114;SDS011;10715;48.546;9.896;2023-03-31T01:59:28;3.07;;;1.93;;
21114;SDS011;10715;48.546;9.896;2023-03-31T02:02:24;3.93;;;1.07;;
21114;SDS011;10715;48.546;9.896;2023-03-31T02:04:52;2.47;;;1.40;;
21114;SDS011;10715;48.546;9.896;2023-03-31T02:07:25;4.33;;;1.23;;
21114;SDS011;10715;48.546;9.896;2023-03-31T02:09:56;1.60;;;1.40;;
21114;SDS011;10715;48.546;9.896;2023-03-31T02:12:26;1.93;;;1.33;;
21114;SDS011;10715;48.546;9.896;2023-03-31T02:14:55;2.07;;;1.33;;
21114;SDS011;10715;48.546;9.896;2023-03-31T02:17:24;3.93;;;1.80;;
21114;SDS011;10715;48.546;9.896;2023-03-31T02:19:55;3.57;;;1.20;;
21114;SDS011;10715;48.546;9.896;2023-03-31T02:22:23;3.57;;;1.87;;
21114;SDS011;10715;48.546;9.896;2023-03-31T02:24:51;6.53;;;1.00;;
21114;SDS011;10715;48.546;9.896;2023-03-31T02:27:25;1.80;;;1.20;;
21114;SDS011;10715;48.546;9.896;2023-03-31T02:29:55;3.80;;;1.37;;
21114;SDS011;10715;48.546;9.896;2023-03-31T02:32:24;4.07;;;1.53;;
21114;SDS011;10715;48.546;9.896;2023-03-31T02:34:59;1.90;;;1.30;;
21114;SDS011;10715;48.546;9.896;2023-03-31T02:37:26;3.50;;;1.10;;
21114;SDS011;10715;48.546;9.896;2023-03-31T02:39:54;4.70;;;1.30;;
21114;SDS011;10715;48.546;9.896;2023-03-31T02:42:22;2.67;;;1.43;;
21114;SDS011;10715;48.546;9.896;2023-03-31T02:44:49;4.00;;;1.10;;
21114;SDS011;10715;48.546;9.896;2023-03-31T02:47:16;3.03;;;1.23;;
21114;SDS011;10715;48.546;9.896;2023-03-31T02:49:48;2.60;;;1.10;;
21114;SDS011;10715;48.546;9.896;2023-03-31T02:52:25;3.93;;;1.53;;
21114;SDS011;10715;48.546;9.896;2023-03-31T02:58:00;3.83;;;1.70;;
21114;SDS011;10715;48.546;9.896;2023-03-31T03:03:34;1.73;;;1.17;;
21114;SDS011;10715;48.546;9.896;2023-03-31T03:06:19;2.80;;;1.23;;
21114;SDS011;10715;48.546;9.896;2023-03-31T03:15:24;1.77;;;1.33;;
21114;SDS011;10715;48.546;9.896;2023-03-31T03:17:56;3.80;;;1.30;;
21114;SDS011;10715;48.546;9.896;2023-03-31T03:20:22;6.00;;;1.47;;
21114;SDS011;10715;48.546;9.896;2023-03-31T03:22:48;4.47;;;1.40;;
21114;SDS011;10715;48.546;9.896;2023-03-31T03:25:15;2.40;;;1.10;;
21114;SDS011;10715;48.546;9.896;2023-03-31T03:27:42;7.40;;;1.73;;
21114;SDS011;10715;48.546;9.896;2023-03-31T03:30:09;4.20;;;1.40;;
21114;SDS011;10715;48.546;9.896;2023-03-31T03:32:36;1.10;;;0.87;;
21114;SDS011;10715;48.546;9.896;2023-03-31T03:35:02;8.40;;;1.77;;
21114;SDS011;10715;48.546;9.896;2023-03-31T03:37:29;4.00;;;1.50;;
21114;SDS011;10715;48.546;9.896;2023-03-31T03:39:55;2.60;;;2.40;;
21114;SDS011;10715;48.546;9.896;2023-03-31T03:42:21;1.73;;;1.37;;
21114;SDS011;10715;48.546;9.896;2023-03-31T03:44:46;3.20;;;2.70;;
21114;SDS011;10715;48.546;9.896;2023-03-31T03:47:12;4.87;;;2.73;;
21114;SDS011;10715;48.546;9.896;2023-03-31T03:49:38;2.83;;;1.80;;
21114;SDS011;10715;48.546;9.896;2023-03-31T03:52:04;6.50;;;2.50;;
21114;SDS011;10715;48.546;9.896;2023-03-31T03:54:30;6.43;;;2.37;;
21114;SDS011;10715;48.546;9.896;2023-03-31T03:56:57;3.90;;;2.27;;
21114;SDS011;10715;48.546;9.896;2023-03-31T03:59:22;2.30;;;1.70;;
21114;SDS011;10715;48.546;9.896;2023-03-31T04:01:48;2.00;;;1.77;;
21114;SDS011;10715;48.546;9.896;2023-03-31T04:04:14;5.27;;;2.23;;
21114;SDS011;10715;48.546;9.896;2023-03-31T04:06:40;5.57;;;1.87;;
21114;SDS011;10715;48.546;9.896;2023-03-31T04:09:06;8.00;;;3.20;;
21114;SDS011;10715;48.546;9.896;2023-03-31T04:11:32;3.30;;;2.10;;
21114;SDS011;10715;48.546;9.896;2023-03-31T04:13:58;6.50;;;2.87;;
21114;SDS011;10715;48.546;9.896;2023-03-31T04:16:23;5.37;;;2.63;;
21114;SDS011;10715;48.546;9.896;2023-03-31T04:18:50;3.90;;;3.20;;
21114;SDS011;10715;48.546;9.896;2023-03-31T04:21:16;4.37;;;2.80;;
21114;SDS011;10715;48.546;9.896;2023-03-31T04:23:52;9.20;;;2.53;;
21114;SDS011;10715;48.546;9.896;2023-03-31T04:26:29;3.77;;;2.63;;
21114;SDS011;10715;48.546;9.896;2023-03-31T04:29:09;3.17;;;2.83;;
21114;SDS011;10715;48.546;9.896;2023-03-31T04:31:37;8.13;;;2.37;;
21114;SDS011;10715;48.546;9.896;2023-03-31T04:34:06;6.07;;;3.10;;
21114;SDS011;10715;48.546;9.896;2023-03-31T04:36:39;4.43;;;2.60;;
21114;SDS011;10715;48.546;9.896;2023-03-31T04:39:11;5.03;;;2.70;;
21114;SDS011;10715;48.546;9.896;2023-03-31T04:41:40;3.07;;;2.77;;
21114;SDS011;10715;48.546;9.896;2023-03-31T04:44:06;3.83;;;2.37;;
21114;SDS011;10715;48.546;9.896;2023-03-31T04:46:32;9.93;;;2.77;;
21114;SDS011;10715;48.546;9.896;2023-03-31T04:48:59;5.03;;;3.30;;
21114;SDS011;10715;48.546;9.896;2023-03-31T04:51:25;5.27;;;4.80;;
21114;SDS011;10715;48.546;9.896;2023-03-31T04:53:51;5.27;;;3.37;;
21114;SDS011;10715;48.546;9.896;2023-03-31T04:56:17;4.87;;;3.27;;
21114;SDS011;10715;48.546;9.896;2023-03-31T04:58:43;6.27;;;3.90;;
21114;SDS011;10715;48.546;9.896;2023-03-31T05:01:08;4.50;;;4.10;;
21114;SDS011;10715;48.546;9.896;2023-03-31T05:03:37;4.70;;;4.13;;
21114;SDS011;10715;48.546;9.896;2023-03-31T05:06:03;4.30;;;3.90;;
21114;SDS011;10715;48.546;9.896;2023-03-31T05:08:29;4.50;;;3.90;;
21114;SDS011;10715;48.546;9.896;2023-03-31T05:10:55;6.13;;;4.50;;
21114;SDS011;10715;48.546;9.896;2023-03-31T05:13:21;8.13;;;5.20;;
21114;SDS011;10715;48.546;9.896;2023-03-31T05:15:47;6.40;;;5.33;;
21114;SDS011;10715;48.546;9.896;2023-03-31T05:18:16;8.93;;;5.80;;
21114;SDS011;10715;48.546;9.896;2023-03-31T05:20:42;5.90;;;4.40;;
21114;SDS011;10715;48.546;9.896;2023-03-31T05:23:07;5.73;;;5.23;;
21114;SDS011;10715;48.546;9.896;2023-03-31T05:25:33;6.43;;;5.20;;
21114;SDS011;10715;48.546;9.896;2023-03-31T05:27:59;10.23;;;4.87;;
21114;SDS011;10715;48.546;9.896;2023-03-31T05:30:25;5.73;;;5.23;;
21114;SDS011;10715;48.546;9.896;2023-03-31T05:32:52;4.77;;;4.37;;
21114;SDS011;10715;48.546;9.896;2023-03-31T05:35:17;8.40;;;5.17;;
21114;SDS011;10715;48.546;9.896;2023-03-31T05:37:43;11.43;;;5.03;;
21114;SDS011;10715;48.546;9.896;2023-03-31T05:40:09;9.57;;;5.70;;
21114;SDS011;10715;48.546;9.896;2023-03-31T05:42:35;8.97;;;6.80;;
21114;SDS011;10715;48.546;9.896;2023-03-31T05:45:02;13.83;;;6.40;;
21114;SDS011;10715;48.546;9.896;2023-03-31T05:47:28;12.50;;;6.43;;
21114;SDS011;10715;48.546;9.896;2023-03-31T05:49:54;6.17;;;5.20;;
21114;SDS011;10715;48.546;9.896;2023-03-31T05:52:20;8.67;;;7.80;;
21114;SDS011;10715;48.546;9.896;2023-03-31T05:54:45;9.13;;;8.23;;
21114;SDS011;10715;48.546;9.896;2023-03-31T05:57:11;15.37;;;6.57;;
21114;SDS011;10715;48.546;9.896;2023-03-31T05:59:37;17.93;;;8.70;;
21114;SDS011;10715;48.546;9.896;2023-03-31T06:02:04;15.13;;;8.00;;
21114;SDS011;10715;48.546;9.896;2023-03-31T06:04:30;10.60;;;8.43;;
21114;SDS011;10715;48.546;9.896;2023-03-31T06:06:56;14.17;;;10.23;;
21114;SDS011;10715;48.546;9.896;2023-03-31T06:09:22;12.67;;;8.30;;
21114;SDS011;10715;48.546;9.896;2023-03-31T06:11:49;10.93;;;7.20;;
21114;SDS011;10715;48.546;9.896;2023-03-31T06:14:15;8.00;;;6.90;;
21114;SDS011;10715;48.546;9.896;2023-03-31T06:16:40;11.63;;;9.20;;
21114;SDS011;10715;48.546;9.896;2023-03-31T06:19:06;14.97;;;10.50;;
21114;SDS011;10715;48.546;9.896;2023-03-31T06:21:32;16.27;;;10.10;;
21114;SDS011;10715;48.546;9.896;2023-03-31T06:23:58;13.00;;;10.80;;
21114;SDS011;10715;48.546;9.896;2023-03-31T06:26:24;16.47;;;11.43;;
21114;SDS011;10715;48.546;9.896;2023-03-31T06:28:51;28.37;;;11.53;;
21114;SDS011;10715;48.546;9.896;2023-03-31T06:31:18;16.07;;;9.90;;
21114;SDS011;10715;48.546;9.896;2023-03-31T06:33:45;14.23;;;9.60;;
21114;SDS011;10715;48.546;9.896;2023-03-31T06:36:12;12.60;;;9.43;;
21114;SDS011;10715;48.546;9.896;2023-03-31T06:38:39;12.67;;;9.30;;
21114;SDS011;10715;48.546;9.896;2023-03-31T06:41:06;14.50;;;8.20;;
21114;SDS011;10715;48.546;9.896;2023-03-31T06:43:33;11.17;;;8.60;;
21114;SDS011;10715;48.546;9.896;2023-03-31T06:45:59;10.47;;;7.90;;
21114;SDS011;10715;48.546;9.896;2023-03-31T06:48:25;10.40;;;8.70;;
21114;SDS011;10715;48.546;9.896;2023-03-31T06:50:52;10.63;;;8.27;;
21114;SDS011;10715;48.546;9.896;2023-03-31T06:53:18;14.63;;;7.60;;
21114;SDS011;10715;48.546;9.896;2023-03-31T06:55:46;9.27;;;7.80;;
21114;SDS011;10715;48.546;9.896;2023-03-31T06:58:11;9.77;;;8.07;;
21114;SDS011;10715;48.546;9.896;2023-03-31T07:00:37;14.17;;;6.90;;
21114;SDS011;10715;48.546;9.896;2023-03-31T07:03:04;11.73;;;6.83;;
21114;SDS011;10715;48.546;9.896;2023-03-31T07:05:30;11.27;;;8.47;;
21114;SDS011;10715;48.546;9.896;2023-03-31T07:07:57;13.57;;;8.37;;
21114;SDS011;10715;48.546;9.896;2023-03-31T07:10:25;9.90;;;8.90;;
21114;SDS011;10715;48.546;9.896;2023-03-31T07:12:52;12.90;;;8.77;;
21114;SDS011;10715;48.546;9.896;2023-03-31T07:15:18;19.13;;;11.40;;
21114;SDS011;10715;48.546;9.896;2023-03-31T07:17:45;14.10;;;9.37;;
21114;SDS011;10715;48.546;9.896;2023-03-31T07:20:12;18.13;;;10.40;;
21114;SDS011;10715;48.546;9.896;2023-03-31T07:22:41;12.10;;;8.30;;
21114;SDS011;10715;48.546;9.896;2023-03-31T07:25:09;10.40;;;7.73;;
21114;SDS011;10715;48.546;9.896;2023-03-31T07:27:37;9.57;;;8.57;;
21114;SDS011;10715;48.546;9.896;2023-03-31T07:30:06;11.30;;;9.67;;
21114;SDS011;10715;48.546;9.896;2023-03-31T07:32:39;11.03;;;7.87;;
21114;SDS011;10715;48.546;9.896;2023-03-31T07:35:09;13.73;;;7.63;;
21114;SDS011;10715;48.546;9.896;2023-03-31T07:37:39;9.47;;;6.40;;
21114;SDS011;10715;48.546;9.896;2023-03-31T07:40:12;6.10;;;4.57;;
21114;SDS011;10715;48.546;9.896;2023-03-31T07:42:40;1.50;;;1.30;;
21114;SDS011;10715;48.546;9.896;2023-03-31T07:45:06;5.60;;;1.47;;
21114;SDS011;10715;48.546;9.896;2023-03-31T07:47:33;1.47;;;1.10;;
21114;SDS011;10715;48.546;9.896;2023-03-31T07:49:59;1.40;;;0.60;;
21114;SDS011;10715;48.546;9.896;2023-03-31T07:52:25;0.60;;;0.40;;
21114;SDS011;10715;48.546;9.896;2023-03-31T07:54:51;0.80;;;0.50;;
21114;SDS011;10715;48.546;9.896;2023-03-31T07:57:17;1.43;;;0.50;;
21114;SDS011;10715;48.546;9.896;2023-03-31T07:59:43;1.77;;;0.83;;
21114;SDS011;10715;48.546;9.896;2023-03-31T08:02:12;2.07;;;0.60;;
21114;SDS011;10715;48.546;9.896;2023-03-31T08:04:40;0.60;;;0.37;;
21114;SDS011;10715;48.546;9.896;2023-03-31T08:07:10;0.90;;;0.40;;
21114;SDS011;10715;48.546;9.896;2023-03-31T08:09:37;4.20;;;0.50;;
21114;SDS011;10715;48.546;9.896;2023-03-31T08:12:04;0.80;;;0.50;;
21114;SDS011;10715;48.546;9.896;2023-03-31T08:14:30;2.07;;;0.50;;
21114;SDS011;10715;48.546;9.896;2023-03-31T08:16:56;1.10;;;0.40;;
21114;SDS011;10715;48.546;9.896;2023-03-31T08:19:24;2.50;;;0.53;;
21114;SDS011;10715;48.546;9.896;2023-03-31T08:21:50;4.80;;;0.40;;
21114;SDS011;10715;48.546;9.896;2023-03-31T08:24:16;0.73;;;0.40;;
21114;SDS011;10715;48.546;9.896;2023-03-31T08:26:42;1.27;;;0.63;;
21114;SDS011;10715;48.546;9.896;2023-03-31T08:29:08;0.70;;;0.40;;
21114;SDS011;10715;48.546;9.896;2023-03-31T08:31:34;2.40;;;0.40;;
21114;SDS011;10715;48.546;9.896;2023-03-31T08:34:00;1.57;;;1.23;;
21114;SDS011;10715;48.546;9.896;2023-03-31T08:36:27;1.33;;;0.83;;
21114;SDS011;10715;48.546;9.896;2023-03-31T08:38:53;2.00;;;0.70;;
21114;SDS011;10715;48.546;9.896;2023-03-31T08:41:28;0.90;;;0.50;;
21114;SDS011;10715;48.546;9.896;2023-03-31T08:44:01;3.53;;;0.30;;
21114;SDS011;10715;48.546;9.896;2023-03-31T08:46:30;0.60;;;0.40;;
21114;SDS011;10715;48.546;9.896;2023-03-31T08:48:59;0.70;;;0.40;;
21114;SDS011;10715;48.546;9.896;2023-03-31T08:51:31;0.70;;;0.37;;
21114;SDS011;10715;48.546;9.896;2023-03-31T08:54:01;0.60;;;0.30;;
21114;SDS011;10715;48.546;9.896;2023-03-31T08:56:39;1.63;;;0.40;;
21114;SDS011;10715;48.546;9.896;2023-03-31T08:59:50;8.20;;;0.60;;
21114;SDS011;10715;48.546;9.896;2023-03-31T09:17:46;1.10;;;0.50;;
21114;SDS011;10715;48.546;9.896;2023-03-31T09:20:17;0.73;;;0.37;;
21114;SDS011;10715;48.546;9.896;2023-03-31T09:22:51;0.60;;;0.30;;
21114;SDS011;10715;48.546;9.896;2023-03-31T09:25:22;4.27;;;0.30;;
21114;SDS011;10715;48.546;9.896;2023-03-31T09:27:53;0.77;;;0.40;;
21114;SDS011;10715;48.546;9.896;2023-03-31T09:30:26;0.60;;;0.30;;
21114;SDS011;10715;48.546;9.896;2023-03-31T09:33:03;0.60;;;0.30;;
21114;SDS011;10715;48.546;9.896;2023-03-31T09:35:38;0.70;;;0.30;;
21114;SDS011;10715;48.546;9.896;2023-03-31T09:38:03;1.27;;;0.30;;
21114;SDS011;10715;48.546;9.896;2023-03-31T09:40:29;0.67;;;0.30;;
21114;SDS011;10715;48.546;9.896;2023-03-31T09:43:03;0.80;;;0.30;;
21114;SDS011;10715;48.546;9.896;2023-03-31T09:45:29;1.87;;;0.30;;
21114;SDS011;10715;48.546;9.896;2023-03-31T09:47:58;1.10;;;0.30;;
21114;SDS011;10715;48.546;9.896;2023-03-31T09:50:28;2.00;;;0.53;;
21114;SDS011;10715;48.546;9.896;2023-03-31T09:52:55;1.63;;;0.30;;
21114;SDS011;10715;48.546;9.896;2023-03-31T09:55:36;0.60;;;0.30;;
21114;SDS011;10715;48.546;9.896;2023-03-31T09:58:13;0.70;;;0.40;;
21114;SDS011;10715;48.546;9.896;2023-03-31T10:00:41;0.80;;;0.40;;
21114;SDS011;10715;48.546;9.896;2023-03-31T10:03:21;0.90;;;0.30;;
21114;SDS011;10715;48.546;9.896;2023-03-31T10:05:51;0.60;;;0.30;;
21114;SDS011;10715;48.546;9.896;2023-03-31T10:11:17;2.03;;;0.40;;
21114;SDS011;10715;48.546;9.896;2023-03-31T10:13:47;0.80;;;0.30;;
21114;SDS011;10715;48.546;9.896;2023-03-31T10:16:21;3.57;;;0.40;;
21114;SDS011;10715;48.546;9.896;2023-03-31T10:21:44;1.33;;;0.30;;
21114;SDS011;10715;48.546;9.896;2023-03-31T10:24:16;3.40;;;0.60;;
21114;SDS011;10715;48.546;9.896;2023-03-31T10:26:45;0.80;;;0.30;;
21114;SDS011;10715;48.546;9.896;2023-03-31T10:29:19;1.93;;;0.50;;
21114;SDS011;10715;48.546;9.896;2023-03-31T10:31:49;0.60;;;0.30;;
21114;SDS011;10715;48.546;9.896;2023-03-31T10:34:15;3.03;;;0.50;;
21114;SDS011;10715;48.546;9.896;2023-03-31T10:36:44;3.20;;;0.40;;
21114;SDS011;10715;48.546;9.896;2023-03-31T10:39:13;0.90;;;0.40;;
21114;SDS011;10715;48.546;9.896;2023-03-31T10:41:41;1.03;;;0.40;;
21114;SDS011;10715;48.546;9.896;2023-03-31T10:47:11;1.43;;;0.40;;
21114;SDS011;10715;48.546;9.896;2023-03-31T10:49:42;2.10;;;0.40;;
21114;SDS011;10715;48.546;9.896;2023-03-31T10:54:49;1.17;;;0.40;;
21114;SDS011;10715;48.546;9.896;2023-03-31T11:08:02;2.20;;;0.50;;
21114;SDS011;10715;48.546;9.896;2023-03-31T11:24:45;5.33;;;0.40;;
21114;SDS011;10715;48.546;9.896;2023-03-31T11:30:23;1.63;;;0.40;;
21114;SDS011;10715;48.546;9.896;2023-03-31T11:33:02;1.00;;;0.43;;
21114;SDS011;10715;48.546;9.896;2023-03-31T11:41:22;2.70;;;0.40;;
21114;SDS011;10715;48.546;9.896;2023-03-31T11:44:04;1.47;;;0.30;;
21114;SDS011;10715;48.546;9.896;2023-03-31T11:49:23;0.60;;;0.30;;
21114;SDS011;10715;48.546;9.896;2023-03-31T11:52:05;1.70;;;0.50;;
21114;SDS011;10715;48.546;9.896;2023-03-31T11:54:42;1.47;;;0.30;;
21114;SDS011;10715;48.546;9.896;2023-03-31T11:57:19;1.73;;;0.57;;
21114;SDS011;10715;48.546;9.896;2023-03-31T11:59:57;0.77;;;0.30;;
21114;SDS011;10715;48.546;9.896;2023-03-31T12:05:15;0.93;;;0.30;;
21114;SDS011;10715;48.546;9.896;2023-03-31T12:07:44;0.60;;;0.20;;
21114;SDS011;10715;48.546;9.896;2023-03-31T12:10:34;3.00;;;0.27;;
21114;SDS011;10715;48.546;9.896;2023-03-31T12:16:19;0.53;;;0.20;;
21114;SDS011;10715;48.546;9.896;2023-03-31T12:21:20;1.07;;;0.30;;
21114;SDS011;10715;48.546;9.896;2023-03-31T12:23:47;0.57;;;0.30;;
21114;SDS011;10715;48.546;9.896;2023-03-31T12:29:32;0.70;;;0.30;;
21114;SDS011;10715;48.546;9.896;2023-03-31T12:32:03;0.63;;;0.30;;
21114;SDS011;10715;48.546;9.896;2023-03-31T12:34:47;0.50;;;0.30;;
21114;SDS011;10715;48.546;9.896;2023-03-31T12:57:23;0.70;;;0.30;;
21114;SDS011;10715;48.546;9.896;2023-03-31T13:02:38;0.97;;;0.40;;
21114;SDS011;10715;48.546;9.896;2023-03-31T13:09:01;0.73;;;0.37;;
21114;SDS011;10715;48.546;9.896;2023-03-31T13:11:21;0.70;;;0.30;;
21114;SDS011;10715;48.546;9.896;2023-03-31T13:13:58;0.80;;;0.40;;
21114;SDS011;10715;48.546;9.896;2023-03-31T13:16:27;1.90;;;0.40;;
21114;SDS011;10715;48.546;9.896;2023-03-31T13:18:57;0.90;;;0.30;;
21114;SDS011;10715;48.546;9.896;2023-03-31T13:21:23;0.83;;;0.40;;
21114;SDS011;10715;48.546;9.896;2023-03-31T13:23:50;1.30;;;0.80;;
21114;SDS011;10715;48.546;9.896;2023-03-31T13:29:17;0.77;;;0.37;;
21114;SDS011;10715;48.546;9.896;2023-03-31T13:34:27;2.70;;;0.30;;
21114;SDS011;10715;48.546;9.896;2023-03-31T13:40:03;1.57;;;0.40;;
21114;SDS011;10715;48.546;9.896;2023-03-31T13:43:08;0.90;;;0.30;;
21114;SDS011;10715;48.546;9.896;2023-03-31T13:51:13;3.03;;;0.33;;
21114;SDS011;10715;48.546;9.896;2023-03-31T14:07:43;2.83;;;0.43;;
21114;SDS011;10715;48.546;9.896;2023-03-31T14:10:23;2.80;;;0.50;;
21114;SDS011;10715;48.546;9.896;2023-03-31T14:13:07;1.20;;;0.30;;
21114;SDS011;10715;48.546;9.896;2023-03-31T14:15:34;0.70;;;0.40;;
21114;SDS011;10715;48.546;9.896;2023-03-31T14:18:03;4.90;;;0.50;;
21114;SDS011;10715;48.546;9.896;2023-03-31T14:20:35;1.60;;;0.30;;
21114;SDS011;10715;48.546;9.896;2023-03-31T14:23:25;0.97;;;0.40;;
21114;SDS011;10715;48.546;9.896;2023-03-31T14:26:16;1.10;;;0.40;;
21114;SDS011;10715;48.546;9.896;2023-03-31T14:29:16;1.00;;;0.87;;
21114;SDS011;10715;48.546;9.896;2023-03-31T14:34:55;1.47;;;0.30;;
21114;SDS011;10715;48.546;9.896;2023-03-31T14:37:31;1.00;;;0.30;;
21114;SDS011;10715;48.546;9.896;2023-03-31T14:39:59;3.90;;;0.63;;
21114;SDS011;10715;48.546;9.896;2023-03-31T14:42:28;0.60;;;0.20;;
21114;SDS011;10715;48.546;9.896;2023-03-31T14:45:18;1.13;;;0.30;;
21114;SDS011;10715;48.546;9.896;2023-03-31T14:47:56;1.23;;;0.30;;
21114;SDS011;10715;48.546;9.896;2023-03-31T14:50:28;1.77;;;1.13;;
21114;SDS011;10715;48.546;9.896;2023-03-31T14:52:55;1.67;;;0.70;;
21114;SDS011;10715;48.546;9.896;2023-03-31T14:55:22;2.13;;;0.50;;
21114;SDS011;10715;48.546;9.896;2023-03-31T14:57:52;0.57;;;0.30;;
21114;SDS011;10715;48.546;9.896;2023-03-31T15:00:29;0.70;;;0.30;;
21114;SDS011;10715;48.546;9.896;2023-03-31T15:03:00;1.03;;;0.23;;
21114;SDS011;10715;48.546;9.896;2023-03-31T15:05:29;0.90;;;0.40;;
21114;SDS011;10715;48.546;9.896;2023-03-31T15:08:16;0.90;;;0.70;;
21114;SDS011;10715;48.546;9.896;2023-03-31T15:10:46;0.60;;;0.30;;
21114;SDS011;10715;48.546;9.896;2023-03-31T15:13:28;1.97;;;0.40;;
21114;SDS011;10715;48.546;9.896;2023-03-31T15:15:59;0.90;;;0.30;;
21114;SDS011;10715;48.546;9.896;2023-03-31T15:18:30;0.60;;;0.30;;
21114;SDS011;10715;48.546;9.896;2023-03-31T15:20:56;1.43;;;0.30;;
21114;SDS011;10715;48.546;9.896;2023-03-31T15:23:23;0.80;;;0.27;;
21114;SDS011;10715;48.546;9.896;2023-03-31T15:26:02;1.07;;;0.37;;
21114;SDS011;10715;48.546;9.896;2023-03-31T15:28:37;0.57;;;0.20;;
21114;SDS011;10715;48.546;9.896;2023-03-31T15:31:12;2.30;;;0.50;;
21114;SDS011;10715;48.546;9.896;2023-03-31T15:33:38;0.60;;;0.20;;
21114;SDS011;10715;48.546;9.896;2023-03-31T15:36:07;0.50;;;0.30;;
21114;SDS011;10715;48.546;9.896;2023-03-31T15:38:35;0.50;;;0.20;;
21114;SDS011;10715;48.546;9.896;2023-03-31T15:41:02;0.60;;;0.30;;
21114;SDS011;10715;48.546;9.896;2023-03-31T15:46:08;0.60;;;0.30;;
21114;SDS011;10715;48.546;9.896;2023-03-31T15:48:50;0.50;;;0.20;;
21114;SDS011;10715;48.546;9.896;2023-03-31T15:51:24;0.60;;;0.30;;
21114;SDS011;10715;48.546;9.896;2023-03-31T15:53:55;1.00;;;0.30;;
21114;SDS011;10715;48.546;9.896;2023-03-31T15:56:31;1.07;;;0.30;;
21114;SDS011;10715;48.546;9.896;2023-03-31T15:58:59;15.13;;;0.77;;
21114;SDS011;10715;48.546;9.896;2023-03-31T16:01:31;0.60;;;0.23;;
21114;SDS011;10715;48.546;9.896;2023-03-31T16:04:09;1.90;;;0.30;;
21114;SDS011;10715;48.546;9.896;2023-03-31T16:11:51;1.33;;;0.30;;
21114;SDS011;10715;48.546;9.896;2023-03-31T16:17:07;1.90;;;0.20;;
21114;SDS011;10715;48.546;9.896;2023-03-31T16:19:40;0.70;;;0.30;;
21114;SDS011;10715;48.546;9.896;2023-03-31T16:22:12;2.33;;;0.60;;
21114;SDS011;10715;48.546;9.896;2023-03-31T16:24:44;0.57;;;0.20;;
21114;SDS011;10715;48.546;9.896;2023-03-31T16:27:11;0.80;;;0.30;;
21114;SDS011;10715;48.546;9.896;2023-03-31T16:29:36;0.73;;;0.40;;
21114;SDS011;10715;48.546;9.896;2023-03-31T16:32:13;0.50;;;0.30;;
21114;SDS011;10715;48.546;9.896;2023-03-31T16:34:51;0.50;;;0.20;;
21114;SDS011;10715;48.546;9.896;2023-03-31T16:37:21;0.70;;;0.30;;
21114;SDS011;10715;48.546;9.896;2023-03-31T16:39:47;0.50;;;0.30;;
21114;SDS011;10715;48.546;9.896;2023-03-31T16:42:13;0.60;;;0.30;;
21114;SDS011;10715;48.546;9.896;2023-03-31T16:44:39;0.67;;;0.30;;
21114;SDS011;10715;48.546;9.896;2023-03-31T16:47:05;0.70;;;0.20;;
21114;SDS011;10715;48.546;9.896;2023-03-31T16:49:31;0.70;;;0.30;;
21114;SDS011;10715;48.546;9.896;2023-03-31T16:51:57;2.43;;;0.30;;
21114;SDS011;10715;48.546;9.896;2023-03-31T16:54:23;0.70;;;0.30;;
21114;SDS011;10715;48.546;9.896;2023-03-31T16:56:48;0.83;;;0.20;;
21114;SDS011;10715;48.546;9.896;2023-03-31T16:59:14;1.13;;;0.30;;
21114;SDS011;10715;48.546;9.896;2023-03-31T17:01:40;0.70;;;0.20;;
21114;SDS011;10715;48.546;9.896;2023-03-31T17:04:06;0.47;;;0.20;;
21114;SDS011;10715;48.546;9.896;2023-03-31T17:06:31;0.77;;;0.30;;
21114;SDS011;10715;48.546;9.896;2023-03-31T17:08:57;0.60;;;0.30;;
21114;SDS011;10715;48.546;9.896;2023-03-31T17:11:23;0.60;;;0.30;;
21114;SDS011;10715;48.546;9.896;2023-03-31T17:13:49;1.30;;;0.30;;
21114;SDS011;10715;48.546;9.896;2023-03-31T17:16:15;0.90;;;0.33;;
21114;SDS011;10715;48.546;9.896;2023-03-31T17:18:43;0.70;;;0.30;;
21114;SDS011;10715;48.546;9.896;2023-03-31T17:21:10;0.70;;;0.30;;
21114;SDS011;10715;48.546;9.896;2023-03-31T17:23:37;0.73;;;0.40;;
21114;SDS011;10715;48.546;9.896;2023-03-31T17:26:04;0.90;;;0.30;;
21114;SDS011;10715;48.546;9.896;2023-03-31T17:28:32;0.83;;;0.30;;
21114;SDS011;10715;48.546;9.896;2023-03-31T17:30:58;0.50;;;0.30;;
21114;SDS011;10715;48.546;9.896;2023-03-31T17:33:24;0.70;;;0.40;;
21114;SDS011;10715;48.546;9.896;2023-03-31T17:35:54;2.10;;;0.30;;
21114;SDS011;10715;48.546;9.896;2023-03-31T17:38:20;0.90;;;0.30;;
21114;SDS011;10715;48.546;9.896;2023-03-31T17:40:47;0.70;;;0.40;;
21114;SDS011;10715;48.546;9.896;2023-03-31T17:43:13;0.70;;;0.47;;
21114;SDS011;10715;48.546;9.896;2023-03-31T17:45:38;0.60;;;0.30;;
21114;SDS011;10715;48.546;9.896;2023-03-31T17:48:05;2.23;;;0.30;;
21114;SDS011;10715;48.546;9.896;2023-03-31T17:50:30;1.20;;;0.30;;
21114;SDS011;10715;48.546;9.896;2023-03-31T17:52:57;0.70;;;0.30;;
21114;SDS011;10715;48.546;9.896;2023-03-31T17:55:23;1.20;;;0.20;;
21114;SDS011;10715;48.546;9.896;2023-03-31T17:57:49;0.67;;;0.30;;
21114;SDS011;10715;48.546;9.896;2023-03-31T18:00:15;6.70;;;1.07;;
21114;SDS011;10715;48.546;9.896;2023-03-31T18:02:41;0.70;;;0.30;;
21114;SDS011;10715;48.546;9.896;2023-03-31T18:05:08;0.50;;;0.20;;
21114;SDS011;10715;48.546;9.896;2023-03-31T18:07:34;0.77;;;0.30;;
21114;SDS011;10715;48.546;9.896;2023-03-31T18:10:01;1.80;;;0.40;;
21114;SDS011;10715;48.546;9.896;2023-03-31T18:12:29;3.63;;;0.50;;